sensor_id;sensor_type;location;lat;lon;timestamp;P1;durP1;ratioP1;P2;durP2;ratioP2
17618;SDS011;8928;51.678;6.074;2023-05-16T00:01:55;17.00;;;3.03;;
17618;SDS011;8928;51.678;6.074;2023-05-16T00:04:42;17.50;;;2.90;;
17618;SDS011;8928;51.678;6.074;2023-05-16T00:07:30;19.03;;;3.47;;
17618;SDS011;8928;51.678;6.074;2023-05-16T00:10:19;18.77;;;3.20;;
17618;SDS011;8928;51.678;6.074;2023-05-16T00:13:06;19.37;;;3.17;;
17618;SDS011;8928;51.678;6.074;2023-05-16T00:15:54;21.27;;;3.17;;
17618;SDS011;8928;51.678;6.074;2023-05-16T00:18:42;21.67;;;3.03;;
17618;SDS011;8928;51.678;6.074;2023-05-16T00:21:29;21.27;;;3.10;;
17618;SDS011;8928;51.678;6.074;2023-05-16T00:24:17;16.90;;;2.90;;
17618;SDS011;8928;51.678;6.074;2023-05-16T00:27:05;12.57;;;2.90;;
17618;SDS011;8928;51.678;6.074;2023-05-16T00:29:52;24.63;;;3.70;;
17618;SDS011;8928;51.678;6.074;2023-05-16T00:32:39;19.10;;;3.17;;
17618;SDS011;8928;51.678;6.074;2023-05-16T00:35:26;22.17;;;3.37;;
17618;SDS011;8928;51.678;6.074;2023-05-16T00:38:13;21.07;;;3.17;;
17618;SDS011;8928;51.678;6.074;2023-05-16T00:41:00;25.80;;;3.10;;
17618;SDS011;8928;51.678;6.074;2023-05-16T00:43:50;16.60;;;2.93;;
17618;SDS011;8928;51.678;6.074;2023-05-16T00:46:37;18.50;;;2.70;;
17618;SDS011;8928;51.678;6.074;2023-05-16T00:49:24;20.63;;;2.97;;
17618;SDS011;8928;51.678;6.074;2023-05-16T00:52:11;18.03;;;2.93;;
17618;SDS011;8928;51.678;6.074;2023-05-16T00:54:58;15.67;;;2.73;;
17618;SDS011;8928;51.678;6.074;2023-05-16T00:57:45;27.33;;;3.70;;
17618;SDS011;8928;51.678;6.074;2023-05-16T01:00:34;22.37;;;2.90;;
17618;SDS011;8928;51.678;6.074;2023-05-16T01:03:21;15.40;;;2.70;;
17618;SDS011;8928;51.678;6.074;2023-05-16T01:06:09;21.37;;;2.93;;
17618;SDS011;8928;51.678;6.074;2023-05-16T01:08:56;20.07;;;2.73;;
17618;SDS011;8928;51.678;6.074;2023-05-16T01:11:46;23.47;;;2.83;;
17618;SDS011;8928;51.678;6.074;2023-05-16T01:14:42;18.30;;;2.63;;
17618;SDS011;8928;51.678;6.074;2023-05-16T01:17:40;17.07;;;2.37;;
17618;SDS011;8928;51.678;6.074;2023-05-16T01:20:37;15.73;;;2.47;;
17618;SDS011;8928;51.678;6.074;2023-05-16T01:23:35;21.20;;;2.80;;
17618;SDS011;8928;51.678;6.074;2023-05-16T01:26:32;19.43;;;2.50;;
17618;SDS011;8928;51.678;6.074;2023-05-16T01:29:20;14.63;;;2.10;;
17618;SDS011;8928;51.678;6.074;2023-05-16T01:32:07;23.40;;;3.00;;
17618;SDS011;8928;51.678;6.074;2023-05-16T01:34:54;14.60;;;2.63;;
17618;SDS011;8928;51.678;6.074;2023-05-16T01:37:41;17.13;;;2.43;;
17618;SDS011;8928;51.678;6.074;2023-05-16T01:40:35;20.70;;;2.27;;
17618;SDS011;8928;51.678;6.074;2023-05-16T01:43:33;24.67;;;2.77;;
17618;SDS011;8928;51.678;6.074;2023-05-16T01:46:26;20.17;;;2.67;;
17618;SDS011;8928;51.678;6.074;2023-05-16T01:49:20;16.33;;;2.07;;
17618;SDS011;8928;51.678;6.074;2023-05-16T01:52:12;14.43;;;2.50;;
17618;SDS011;8928;51.678;6.074;2023-05-16T01:55:05;23.63;;;2.70;;
17618;SDS011;8928;51.678;6.074;2023-05-16T01:57:56;18.43;;;2.70;;
17618;SDS011;8928;51.678;6.074;2023-05-16T02:00:46;17.80;;;2.37;;
17618;SDS011;8928;51.678;6.074;2023-05-16T02:03:33;17.50;;;2.33;;
17618;SDS011;8928;51.678;6.074;2023-05-16T02:06:20;21.27;;;2.43;;
17618;SDS011;8928;51.678;6.074;2023-05-16T02:09:08;20.80;;;2.30;;
17618;SDS011;8928;51.678;6.074;2023-05-16T02:11:55;17.53;;;2.43;;
17618;SDS011;8928;51.678;6.074;2023-05-16T02:14:42;24.43;;;2.33;;
17618;SDS011;8928;51.678;6.074;2023-05-16T02:17:30;17.40;;;2.30;;
17618;SDS011;8928;51.678;6.074;2023-05-16T02:20:17;19.37;;;2.33;;
17618;SDS011;8928;51.678;6.074;2023-05-16T02:23:04;14.93;;;1.97;;
17618;SDS011;8928;51.678;6.074;2023-05-16T02:25:51;19.00;;;2.37;;
17618;SDS011;8928;51.678;6.074;2023-05-16T02:28:38;19.47;;;2.43;;
17618;SDS011;8928;51.678;6.074;2023-05-16T02:31:26;24.90;;;2.50;;
17618;SDS011;8928;51.678;6.074;2023-05-16T02:34:15;14.37;;;2.20;;
17618;SDS011;8928;51.678;6.074;2023-05-16T02:37:03;18.23;;;2.20;;
17618;SDS011;8928;51.678;6.074;2023-05-16T02:39:50;14.77;;;2.10;;
17618;SDS011;8928;51.678;6.074;2023-05-16T02:42:37;15.20;;;2.03;;
17618;SDS011;8928;51.678;6.074;2023-05-16T02:45:24;13.07;;;1.90;;
17618;SDS011;8928;51.678;6.074;2023-05-16T02:48:11;13.00;;;2.40;;
17618;SDS011;8928;51.678;6.074;2023-05-16T02:50:59;16.63;;;2.10;;
17618;SDS011;8928;51.678;6.074;2023-05-16T02:53:46;14.27;;;1.77;;
17618;SDS011;8928;51.678;6.074;2023-05-16T02:56:34;13.47;;;2.20;;
17618;SDS011;8928;51.678;6.074;2023-05-16T02:59:22;11.13;;;2.00;;
17618;SDS011;8928;51.678;6.074;2023-05-16T03:02:09;21.07;;;2.30;;
17618;SDS011;8928;51.678;6.074;2023-05-16T03:04:56;15.60;;;2.20;;
17618;SDS011;8928;51.678;6.074;2023-05-16T03:07:44;18.37;;;2.30;;
17618;SDS011;8928;51.678;6.074;2023-05-16T03:10:31;21.33;;;2.20;;
17618;SDS011;8928;51.678;6.074;2023-05-16T03:13:18;22.63;;;2.60;;
17618;SDS011;8928;51.678;6.074;2023-05-16T03:16:06;16.33;;;2.00;;
17618;SDS011;8928;51.678;6.074;2023-05-16T03:18:53;17.43;;;2.13;;
17618;SDS011;8928;51.678;6.074;2023-05-16T03:21:40;14.27;;;2.30;;
17618;SDS011;8928;51.678;6.074;2023-05-16T03:24:28;18.97;;;2.17;;
17618;SDS011;8928;51.678;6.074;2023-05-16T03:27:15;11.33;;;2.20;;
17618;SDS011;8928;51.678;6.074;2023-05-16T03:30:02;19.17;;;2.20;;
17618;SDS011;8928;51.678;6.074;2023-05-16T03:32:50;13.90;;;2.43;;
17618;SDS011;8928;51.678;6.074;2023-05-16T03:35:37;13.50;;;2.10;;
17618;SDS011;8928;51.678;6.074;2023-05-16T03:38:25;18.53;;;2.60;;
17618;SDS011;8928;51.678;6.074;2023-05-16T03:41:13;20.30;;;2.50;;
17618;SDS011;8928;51.678;6.074;2023-05-16T03:44:01;21.20;;;2.77;;
17618;SDS011;8928;51.678;6.074;2023-05-16T03:46:48;24.40;;;3.47;;
17618;SDS011;8928;51.678;6.074;2023-05-16T03:49:37;18.40;;;2.53;;
17618;SDS011;8928;51.678;6.074;2023-05-16T03:52:24;13.90;;;2.10;;
17618;SDS011;8928;51.678;6.074;2023-05-16T03:55:11;16.80;;;2.50;;
17618;SDS011;8928;51.678;6.074;2023-05-16T03:58:00;20.13;;;2.43;;
17618;SDS011;8928;51.678;6.074;2023-05-16T04:00:47;22.83;;;2.50;;
17618;SDS011;8928;51.678;6.074;2023-05-16T04:03:34;17.43;;;2.40;;
17618;SDS011;8928;51.678;6.074;2023-05-16T04:06:22;19.50;;;2.40;;
17618;SDS011;8928;51.678;6.074;2023-05-16T04:09:10;18.03;;;2.43;;
17618;SDS011;8928;51.678;6.074;2023-05-16T04:11:57;19.43;;;2.40;;
17618;SDS011;8928;51.678;6.074;2023-05-16T04:14:47;21.43;;;2.43;;
17618;SDS011;8928;51.678;6.074;2023-05-16T04:17:34;17.27;;;2.27;;
17618;SDS011;8928;51.678;6.074;2023-05-16T04:20:21;15.70;;;2.20;;
17618;SDS011;8928;51.678;6.074;2023-05-16T04:23:08;15.37;;;2.20;;
17618;SDS011;8928;51.678;6.074;2023-05-16T04:25:56;14.47;;;2.40;;
17618;SDS011;8928;51.678;6.074;2023-05-16T04:28:43;19.43;;;2.23;;
17618;SDS011;8928;51.678;6.074;2023-05-16T04:31:32;19.60;;;2.50;;
17618;SDS011;8928;51.678;6.074;2023-05-16T04:34:19;19.40;;;2.13;;
17618;SDS011;8928;51.678;6.074;2023-05-16T04:37:07;19.73;;;2.50;;
17618;SDS011;8928;51.678;6.074;2023-05-16T04:39:54;11.40;;;2.13;;
17618;SDS011;8928;51.678;6.074;2023-05-16T04:42:41;18.20;;;2.57;;
17618;SDS011;8928;51.678;6.074;2023-05-16T04:45:28;17.93;;;2.33;;
17618;SDS011;8928;51.678;6.074;2023-05-16T04:48:17;18.83;;;2.43;;
17618;SDS011;8928;51.678;6.074;2023-05-16T04:51:04;16.73;;;2.33;;
17618;SDS011;8928;51.678;6.074;2023-05-16T04:53:51;14.70;;;2.37;;
17618;SDS011;8928;51.678;6.074;2023-05-16T04:56:38;13.73;;;2.30;;
17618;SDS011;8928;51.678;6.074;2023-05-16T04:59:25;13.40;;;2.60;;
17618;SDS011;8928;51.678;6.074;2023-05-16T05:02:12;17.30;;;2.47;;
17618;SDS011;8928;51.678;6.074;2023-05-16T05:05:00;19.87;;;2.30;;
17618;SDS011;8928;51.678;6.074;2023-05-16T05:07:47;18.40;;;2.20;;
17618;SDS011;8928;51.678;6.074;2023-05-16T05:10:34;24.90;;;2.63;;
17618;SDS011;8928;51.678;6.074;2023-05-16T05:13:21;23.83;;;2.87;;
17618;SDS011;8928;51.678;6.074;2023-05-16T05:16:09;20.03;;;3.00;;
17618;SDS011;8928;51.678;6.074;2023-05-16T05:18:56;13.97;;;2.53;;
17618;SDS011;8928;51.678;6.074;2023-05-16T05:21:44;19.93;;;3.00;;
17618;SDS011;8928;51.678;6.074;2023-05-16T05:24:31;13.23;;;2.70;;
17618;SDS011;8928;51.678;6.074;2023-05-16T05:27:18;20.00;;;2.97;;
17618;SDS011;8928;51.678;6.074;2023-05-16T05:30:06;12.33;;;2.47;;
17618;SDS011;8928;51.678;6.074;2023-05-16T05:32:53;19.80;;;2.90;;
17618;SDS011;8928;51.678;6.074;2023-05-16T05:35:41;21.90;;;3.07;;
17618;SDS011;8928;51.678;6.074;2023-05-16T05:38:29;18.00;;;3.00;;
17618;SDS011;8928;51.678;6.074;2023-05-16T05:41:16;18.30;;;2.80;;
17618;SDS011;8928;51.678;6.074;2023-05-16T05:44:03;15.40;;;2.37;;
17618;SDS011;8928;51.678;6.074;2023-05-16T05:46:50;16.83;;;2.67;;
17618;SDS011;8928;51.678;6.074;2023-05-16T05:49:37;22.90;;;2.77;;
17618;SDS011;8928;51.678;6.074;2023-05-16T05:52:25;15.60;;;2.40;;
17618;SDS011;8928;51.678;6.074;2023-05-16T05:55:14;13.30;;;2.67;;
17618;SDS011;8928;51.678;6.074;2023-05-16T05:58:01;14.73;;;2.73;;
17618;SDS011;8928;51.678;6.074;2023-05-16T06:00:48;21.10;;;3.03;;
17618;SDS011;8928;51.678;6.074;2023-05-16T06:03:35;13.40;;;2.20;;
17618;SDS011;8928;51.678;6.074;2023-05-16T06:06:22;20.37;;;2.90;;
17618;SDS011;8928;51.678;6.074;2023-05-16T06:09:09;20.33;;;2.33;;
17618;SDS011;8928;51.678;6.074;2023-05-16T06:11:58;15.40;;;1.90;;
17618;SDS011;8928;51.678;6.074;2023-05-16T06:14:45;13.80;;;2.00;;
17618;SDS011;8928;51.678;6.074;2023-05-16T06:17:32;20.67;;;1.87;;
17618;SDS011;8928;51.678;6.074;2023-05-16T06:20:19;10.43;;;1.60;;
17618;SDS011;8928;51.678;6.074;2023-05-16T06:23:06;12.57;;;1.90;;
17618;SDS011;8928;51.678;6.074;2023-05-16T06:25:53;14.43;;;2.00;;
17618;SDS011;8928;51.678;6.074;2023-05-16T06:28:42;13.50;;;1.60;;
17618;SDS011;8928;51.678;6.074;2023-05-16T06:31:29;13.03;;;2.00;;
17618;SDS011;8928;51.678;6.074;2023-05-16T06:34:17;13.57;;;2.00;;
17618;SDS011;8928;51.678;6.074;2023-05-16T06:37:04;13.13;;;1.93;;
17618;SDS011;8928;51.678;6.074;2023-05-16T06:39:52;18.33;;;1.70;;
17618;SDS011;8928;51.678;6.074;2023-05-16T06:42:39;13.67;;;1.73;;
17618;SDS011;8928;51.678;6.074;2023-05-16T06:45:27;15.03;;;1.70;;
17618;SDS011;8928;51.678;6.074;2023-05-16T06:48:16;16.20;;;1.50;;
17618;SDS011;8928;51.678;6.074;2023-05-16T06:51:04;10.30;;;1.73;;
17618;SDS011;8928;51.678;6.074;2023-05-16T06:53:51;8.83;;;1.70;;
17618;SDS011;8928;51.678;6.074;2023-05-16T06:56:38;16.80;;;1.83;;
17618;SDS011;8928;51.678;6.074;2023-05-16T06:59:25;16.63;;;1.87;;
17618;SDS011;8928;51.678;6.074;2023-05-16T07:02:13;11.47;;;1.63;;
17618;SDS011;8928;51.678;6.074;2023-05-16T07:05:01;13.80;;;1.83;;
17618;SDS011;8928;51.678;6.074;2023-05-16T07:07:48;13.87;;;2.00;;
17618;SDS011;8928;51.678;6.074;2023-05-16T07:10:35;13.10;;;1.60;;
17618;SDS011;8928;51.678;6.074;2023-05-16T07:13:22;14.27;;;1.40;;
17618;SDS011;8928;51.678;6.074;2023-05-16T07:16:09;13.97;;;1.90;;
17618;SDS011;8928;51.678;6.074;2023-05-16T07:18:57;15.60;;;1.80;;
17618;SDS011;8928;51.678;6.074;2023-05-16T07:21:44;16.37;;;1.80;;
17618;SDS011;8928;51.678;6.074;2023-05-16T07:24:31;15.83;;;1.80;;
17618;SDS011;8928;51.678;6.074;2023-05-16T07:27:18;9.70;;;1.50;;
17618;SDS011;8928;51.678;6.074;2023-05-16T07:30:06;12.27;;;1.70;;
17618;SDS011;8928;51.678;6.074;2023-05-16T07:32:54;10.73;;;1.63;;
17618;SDS011;8928;51.678;6.074;2023-05-16T07:35:43;14.17;;;1.80;;
17618;SDS011;8928;51.678;6.074;2023-05-16T07:38:30;17.57;;;1.77;;
17618;SDS011;8928;51.678;6.074;2023-05-16T07:41:17;5.53;;;1.13;;
17618;SDS011;8928;51.678;6.074;2023-05-16T07:44:05;11.47;;;1.90;;
17618;SDS011;8928;51.678;6.074;2023-05-16T07:46:53;14.27;;;1.70;;
17618;SDS011;8928;51.678;6.074;2023-05-16T07:49:40;15.27;;;1.90;;
17618;SDS011;8928;51.678;6.074;2023-05-16T07:52:28;12.07;;;1.60;;
17618;SDS011;8928;51.678;6.074;2023-05-16T07:55:15;12.90;;;1.60;;
17618;SDS011;8928;51.678;6.074;2023-05-16T07:58:02;12.23;;;1.57;;
17618;SDS011;8928;51.678;6.074;2023-05-16T08:00:49;13.30;;;1.70;;
17618;SDS011;8928;51.678;6.074;2023-05-16T08:03:36;8.50;;;1.50;;
17618;SDS011;8928;51.678;6.074;2023-05-16T08:06:23;8.20;;;1.20;;
17618;SDS011;8928;51.678;6.074;2023-05-16T08:09:12;9.57;;;1.30;;
17618;SDS011;8928;51.678;6.074;2023-05-16T08:11:59;9.07;;;1.23;;
17618;SDS011;8928;51.678;6.074;2023-05-16T08:14:47;12.50;;;1.50;;
17618;SDS011;8928;51.678;6.074;2023-05-16T08:17:34;9.93;;;1.50;;
17618;SDS011;8928;51.678;6.074;2023-05-16T08:20:22;11.47;;;1.50;;
17618;SDS011;8928;51.678;6.074;2023-05-16T08:23:09;8.97;;;1.43;;
17618;SDS011;8928;51.678;6.074;2023-05-16T08:25:58;6.97;;;1.23;;
17618;SDS011;8928;51.678;6.074;2023-05-16T08:28:45;7.57;;;1.50;;
17618;SDS011;8928;51.678;6.074;2023-05-16T08:31:33;8.43;;;1.60;;
17618;SDS011;8928;51.678;6.074;2023-05-16T08:34:20;13.67;;;1.80;;
17618;SDS011;8928;51.678;6.074;2023-05-16T08:37:07;11.70;;;1.77;;
17618;SDS011;8928;51.678;6.074;2023-05-16T08:39:55;6.67;;;1.10;;
17618;SDS011;8928;51.678;6.074;2023-05-16T08:42:45;11.17;;;1.03;;
17618;SDS011;8928;51.678;6.074;2023-05-16T08:45:32;7.50;;;1.10;;
17618;SDS011;8928;51.678;6.074;2023-05-16T08:48:20;5.73;;;1.40;;
17618;SDS011;8928;51.678;6.074;2023-05-16T08:51:09;11.30;;;1.30;;
17618;SDS011;8928;51.678;6.074;2023-05-16T08:53:59;9.33;;;1.30;;
17618;SDS011;8928;51.678;6.074;2023-05-16T08:56:48;5.90;;;0.93;;
17618;SDS011;8928;51.678;6.074;2023-05-16T08:59:37;11.00;;;0.93;;
17618;SDS011;8928;51.678;6.074;2023-05-16T09:02:26;7.67;;;1.10;;
17618;SDS011;8928;51.678;6.074;2023-05-16T09:05:14;6.50;;;1.10;;
17618;SDS011;8928;51.678;6.074;2023-05-16T09:08:02;9.23;;;1.20;;
17618;SDS011;8928;51.678;6.074;2023-05-16T09:10:50;6.87;;;1.20;;
17618;SDS011;8928;51.678;6.074;2023-05-16T09:13:37;4.40;;;1.10;;
17618;SDS011;8928;51.678;6.074;2023-05-16T09:16:26;7.60;;;1.00;;
17618;SDS011;8928;51.678;6.074;2023-05-16T09:19:13;4.83;;;1.00;;
17618;SDS011;8928;51.678;6.074;2023-05-16T09:22:01;5.27;;;0.83;;
17618;SDS011;8928;51.678;6.074;2023-05-16T09:24:48;4.47;;;0.80;;
17618;SDS011;8928;51.678;6.074;2023-05-16T09:27:35;6.67;;;1.10;;
17618;SDS011;8928;51.678;6.074;2023-05-16T09:30:26;8.23;;;1.07;;
17618;SDS011;8928;51.678;6.074;2023-05-16T09:33:15;7.23;;;0.90;;
17618;SDS011;8928;51.678;6.074;2023-05-16T09:36:02;4.67;;;0.83;;
17618;SDS011;8928;51.678;6.074;2023-05-16T09:38:50;4.07;;;0.80;;
17618;SDS011;8928;51.678;6.074;2023-05-16T09:41:37;4.13;;;0.70;;
17618;SDS011;8928;51.678;6.074;2023-05-16T09:44:25;7.37;;;0.87;;
17618;SDS011;8928;51.678;6.074;2023-05-16T09:47:13;3.97;;;0.87;;
17618;SDS011;8928;51.678;6.074;2023-05-16T09:50:01;2.70;;;0.73;;
17618;SDS011;8928;51.678;6.074;2023-05-16T09:52:49;4.27;;;0.70;;
17618;SDS011;8928;51.678;6.074;2023-05-16T09:55:36;1.70;;;0.50;;
17618;SDS011;8928;51.678;6.074;2023-05-16T09:58:26;3.33;;;0.43;;
17618;SDS011;8928;51.678;6.074;2023-05-16T10:01:14;2.27;;;0.50;;
17618;SDS011;8928;51.678;6.074;2023-05-16T10:04:02;3.47;;;0.60;;
17618;SDS011;8928;51.678;6.074;2023-05-16T10:06:50;5.93;;;0.70;;
17618;SDS011;8928;51.678;6.074;2023-05-16T10:09:39;4.43;;;0.57;;
17618;SDS011;8928;51.678;6.074;2023-05-16T10:12:28;5.47;;;0.70;;
17618;SDS011;8928;51.678;6.074;2023-05-16T10:15:17;5.53;;;0.80;;
17618;SDS011;8928;51.678;6.074;2023-05-16T10:18:06;4.87;;;0.90;;
17618;SDS011;8928;51.678;6.074;2023-05-16T10:21:01;4.23;;;0.77;;
17618;SDS011;8928;51.678;6.074;2023-05-16T10:23:52;2.43;;;0.60;;
17618;SDS011;8928;51.678;6.074;2023-05-16T10:26:44;2.23;;;0.53;;
17618;SDS011;8928;51.678;6.074;2023-05-16T10:29:31;7.17;;;0.90;;
17618;SDS011;8928;51.678;6.074;2023-05-16T10:32:18;6.97;;;0.73;;
17618;SDS011;8928;51.678;6.074;2023-05-16T10:35:08;3.73;;;0.60;;
17618;SDS011;8928;51.678;6.074;2023-05-16T10:37:56;6.23;;;1.00;;
17618;SDS011;8928;51.678;6.074;2023-05-16T10:40:46;8.23;;;0.90;;
17618;SDS011;8928;51.678;6.074;2023-05-16T10:43:34;6.37;;;0.80;;
17618;SDS011;8928;51.678;6.074;2023-05-16T10:46:21;6.50;;;0.83;;
17618;SDS011;8928;51.678;6.074;2023-05-16T10:52:13;3.37;;;0.60;;
17618;SDS011;8928;51.678;6.074;2023-05-16T10:55:02;4.33;;;0.70;;
17618;SDS011;8928;51.678;6.074;2023-05-16T10:57:51;7.20;;;0.83;;
17618;SDS011;8928;51.678;6.074;2023-05-16T11:00:38;7.37;;;0.80;;
17618;SDS011;8928;51.678;6.074;2023-05-16T11:03:26;5.03;;;0.75;;
17618;SDS011;8928;51.678;6.074;2023-05-16T11:06:15;4.13;;;0.70;;
17618;SDS011;8928;51.678;6.074;2023-05-16T11:09:11;7.03;;;0.90;;
17618;SDS011;8928;51.678;6.074;2023-05-16T11:12:08;4.63;;;0.80;;
17618;SDS011;8928;51.678;6.074;2023-05-16T11:14:56;5.75;;;0.90;;
17618;SDS011;8928;51.678;6.074;2023-05-16T11:17:44;6.30;;;1.10;;
17618;SDS011;8928;51.678;6.074;2023-05-16T11:20:32;4.38;;;0.90;;
17618;SDS011;8928;51.678;6.074;2023-05-16T11:23:23;5.55;;;0.80;;
17618;SDS011;8928;51.678;6.074;2023-05-16T11:26:11;8.02;;;1.00;;
17618;SDS011;8928;51.678;6.074;2023-05-16T11:28:59;3.83;;;0.90;;
17618;SDS011;8928;51.678;6.074;2023-05-16T11:31:49;11.57;;;0.93;;
17618;SDS011;8928;51.678;6.074;2023-05-16T11:34:38;7.03;;;1.03;;
17618;SDS011;8928;51.678;6.074;2023-05-16T11:37:26;6.47;;;1.05;;
17618;SDS011;8928;51.678;6.074;2023-05-16T11:40:13;5.15;;;0.90;;
17618;SDS011;8928;51.678;6.074;2023-05-16T11:43:01;5.20;;;0.93;;
17618;SDS011;8928;51.678;6.074;2023-05-16T11:45:52;5.45;;;1.17;;
17618;SDS011;8928;51.678;6.074;2023-05-16T11:48:41;6.80;;;1.00;;
17618;SDS011;8928;51.678;6.074;2023-05-16T11:51:31;6.25;;;0.93;;
17618;SDS011;8928;51.678;6.074;2023-05-16T11:54:19;4.38;;;0.70;;
17618;SDS011;8928;51.678;6.074;2023-05-16T11:57:07;4.85;;;0.65;;
17618;SDS011;8928;51.678;6.074;2023-05-16T11:59:54;5.30;;;0.80;;
17618;SDS011;8928;51.678;6.074;2023-05-16T12:02:42;3.42;;;0.90;;
17618;SDS011;8928;51.678;6.074;2023-05-16T12:05:31;5.13;;;0.80;;
17618;SDS011;8928;51.678;6.074;2023-05-16T12:08:19;5.88;;;0.90;;
17618;SDS011;8928;51.678;6.074;2023-05-16T12:11:08;4.22;;;0.90;;
17618;SDS011;8928;51.678;6.074;2023-05-16T12:13:55;4.95;;;1.02;;
17618;SDS011;8928;51.678;6.074;2023-05-16T12:16:43;7.60;;;1.10;;
17618;SDS011;8928;51.678;6.074;2023-05-16T12:19:30;4.97;;;0.98;;
17618;SDS011;8928;51.678;6.074;2023-05-16T12:22:19;7.30;;;1.08;;
17618;SDS011;8928;51.678;6.074;2023-05-16T12:25:20;5.85;;;0.80;;
17618;SDS011;8928;51.678;6.074;2023-05-16T12:28:08;6.18;;;1.00;;
17618;SDS011;8928;51.678;6.074;2023-05-16T12:30:58;4.32;;;0.90;;
17618;SDS011;8928;51.678;6.074;2023-05-16T12:33:45;5.60;;;0.73;;
17618;SDS011;8928;51.678;6.074;2023-05-16T12:36:32;5.90;;;0.98;;
17618;SDS011;8928;51.678;6.074;2023-05-16T12:39:21;3.50;;;0.82;;
17618;SDS011;8928;51.678;6.074;2023-05-16T12:42:08;3.90;;;0.82;;
17618;SDS011;8928;51.678;6.074;2023-05-16T12:44:57;4.78;;;1.23;;
17618;SDS011;8928;51.678;6.074;2023-05-16T12:47:45;6.35;;;1.00;;
17618;SDS011;8928;51.678;6.074;2023-05-16T12:50:32;5.35;;;1.10;;
17618;SDS011;8928;51.678;6.074;2023-05-16T12:53:21;8.10;;;1.00;;
17618;SDS011;8928;51.678;6.074;2023-05-16T12:56:09;7.40;;;1.20;;
17618;SDS011;8928;51.678;6.074;2023-05-16T12:58:57;2.70;;;0.88;;
17618;SDS011;8928;51.678;6.074;2023-05-16T13:01:44;4.38;;;0.95;;
17618;SDS011;8928;51.678;6.074;2023-05-16T13:04:31;4.85;;;0.98;;
17618;SDS011;8928;51.678;6.074;2023-05-16T13:07:18;4.35;;;0.95;;
17618;SDS011;8928;51.678;6.074;2023-05-16T13:10:05;8.23;;;0.90;;
17618;SDS011;8928;51.678;6.074;2023-05-16T13:12:56;5.68;;;1.20;;
17618;SDS011;8928;51.678;6.074;2023-05-16T13:15:44;7.10;;;1.30;;
17618;SDS011;8928;51.678;6.074;2023-05-16T13:18:31;4.75;;;1.00;;
17618;SDS011;8928;51.678;6.074;2023-05-16T13:21:20;7.90;;;1.05;;
17618;SDS011;8928;51.678;6.074;2023-05-16T13:24:07;5.10;;;1.00;;
17618;SDS011;8928;51.678;6.074;2023-05-16T13:26:54;5.67;;;1.13;;
17618;SDS011;8928;51.678;6.074;2023-05-16T13:29:43;6.30;;;1.03;;
17618;SDS011;8928;51.678;6.074;2023-05-16T13:32:30;4.27;;;1.00;;
17618;SDS011;8928;51.678;6.074;2023-05-16T13:35:18;12.13;;;1.10;;
17618;SDS011;8928;51.678;6.074;2023-05-16T13:38:06;5.17;;;1.27;;
17618;SDS011;8928;51.678;6.074;2023-05-16T13:40:53;4.73;;;0.90;;
17618;SDS011;8928;51.678;6.074;2023-05-16T13:43:40;4.43;;;1.00;;
17618;SDS011;8928;51.678;6.074;2023-05-16T13:46:28;4.43;;;0.80;;
17618;SDS011;8928;51.678;6.074;2023-05-16T13:49:15;6.03;;;1.00;;
17618;SDS011;8928;51.678;6.074;2023-05-16T13:52:02;5.77;;;1.10;;
17618;SDS011;8928;51.678;6.074;2023-05-16T13:54:50;10.87;;;1.10;;
17618;SDS011;8928;51.678;6.074;2023-05-16T13:57:37;6.20;;;1.10;;
17618;SDS011;8928;51.678;6.074;2023-05-16T14:00:24;4.87;;;1.00;;
17618;SDS011;8928;51.678;6.074;2023-05-16T14:03:13;7.53;;;1.00;;
17618;SDS011;8928;51.678;6.074;2023-05-16T14:06:01;6.47;;;0.90;;
17618;SDS011;8928;51.678;6.074;2023-05-16T14:08:48;5.87;;;1.00;;
17618;SDS011;8928;51.678;6.074;2023-05-16T14:11:36;6.83;;;1.00;;
17618;SDS011;8928;51.678;6.074;2023-05-16T14:14:23;5.03;;;0.83;;
17618;SDS011;8928;51.678;6.074;2023-05-16T14:17:10;4.10;;;1.20;;
17618;SDS011;8928;51.678;6.074;2023-05-16T14:19:58;6.80;;;1.48;;
17618;SDS011;8928;51.678;6.074;2023-05-16T14:22:45;5.22;;;0.90;;
17618;SDS011;8928;51.678;6.074;2023-05-16T14:25:32;6.07;;;0.88;;
17618;SDS011;8928;51.678;6.074;2023-05-16T14:28:20;5.37;;;1.23;;
17618;SDS011;8928;51.678;6.074;2023-05-16T14:31:07;8.33;;;1.63;;
17618;SDS011;8928;51.678;6.074;2023-05-16T14:33:54;7.70;;;1.10;;
17618;SDS011;8928;51.678;6.074;2023-05-16T14:36:44;6.17;;;1.10;;
17618;SDS011;8928;51.678;6.074;2023-05-16T14:39:31;6.10;;;1.40;;
17618;SDS011;8928;51.678;6.074;2023-05-16T14:42:18;5.23;;;1.20;;
17618;SDS011;8928;51.678;6.074;2023-05-16T14:45:06;5.20;;;1.20;;
17618;SDS011;8928;51.678;6.074;2023-05-16T14:47:53;6.17;;;1.40;;
17618;SDS011;8928;51.678;6.074;2023-05-16T14:50:40;5.57;;;1.30;;
17618;SDS011;8928;51.678;6.074;2023-05-16T14:53:29;9.10;;;1.30;;
17618;SDS011;8928;51.678;6.074;2023-05-16T14:56:16;5.17;;;1.23;;
17618;SDS011;8928;51.678;6.074;2023-05-16T14:59:03;5.00;;;1.20;;
17618;SDS011;8928;51.678;6.074;2023-05-16T15:01:50;7.63;;;1.17;;
17618;SDS011;8928;51.678;6.074;2023-05-16T15:04:37;5.40;;;1.40;;
17618;SDS011;8928;51.678;6.074;2023-05-16T15:07:24;4.67;;;1.43;;
17618;SDS011;8928;51.678;6.074;2023-05-16T15:10:13;7.07;;;1.30;;
17618;SDS011;8928;51.678;6.074;2023-05-16T15:13:00;6.80;;;1.17;;
17618;SDS011;8928;51.678;6.074;2023-05-16T15:15:47;5.80;;;1.30;;
17618;SDS011;8928;51.678;6.074;2023-05-16T15:18:34;8.67;;;1.40;;
17618;SDS011;8928;51.678;6.074;2023-05-16T15:21:21;8.67;;;1.50;;
17618;SDS011;8928;51.678;6.074;2023-05-16T15:24:09;9.03;;;1.70;;
17618;SDS011;8928;51.678;6.074;2023-05-16T15:26:57;6.67;;;1.10;;
17618;SDS011;8928;51.678;6.074;2023-05-16T15:29:45;7.43;;;1.40;;
17618;SDS011;8928;51.678;6.074;2023-05-16T15:32:32;5.40;;;1.33;;
17618;SDS011;8928;51.678;6.074;2023-05-16T15:35:19;8.30;;;1.27;;
17618;SDS011;8928;51.678;6.074;2023-05-16T15:38:06;11.80;;;1.50;;
17618;SDS011;8928;51.678;6.074;2023-05-16T15:40:53;7.77;;;1.40;;
17618;SDS011;8928;51.678;6.074;2023-05-16T15:43:41;8.48;;;1.40;;
17618;SDS011;8928;51.678;6.074;2023-05-16T15:46:29;9.33;;;1.40;;
17618;SDS011;8928;51.678;6.074;2023-05-16T15:49:17;5.53;;;1.20;;
17618;SDS011;8928;51.678;6.074;2023-05-16T15:52:05;5.97;;;1.50;;
17618;SDS011;8928;51.678;6.074;2023-05-16T15:54:52;8.57;;;1.57;;
17618;SDS011;8928;51.678;6.074;2023-05-16T15:57:40;7.47;;;1.30;;
17618;SDS011;8928;51.678;6.074;2023-05-16T16:00:29;7.27;;;1.40;;
17618;SDS011;8928;51.678;6.074;2023-05-16T16:03:16;6.80;;;1.60;;
17618;SDS011;8928;51.678;6.074;2023-05-16T16:06:03;7.30;;;1.63;;
17618;SDS011;8928;51.678;6.074;2023-05-16T16:08:50;13.37;;;1.50;;
17618;SDS011;8928;51.678;6.074;2023-05-16T16:11:37;13.13;;;1.60;;
17618;SDS011;8928;51.678;6.074;2023-05-16T16:14:24;7.93;;;1.37;;
17618;SDS011;8928;51.678;6.074;2023-05-16T16:17:13;9.07;;;1.20;;
17618;SDS011;8928;51.678;6.074;2023-05-16T16:20:00;5.57;;;1.20;;
17618;SDS011;8928;51.678;6.074;2023-05-16T16:22:47;9.67;;;1.47;;
17618;SDS011;8928;51.678;6.074;2023-05-16T16:25:35;10.60;;;1.40;;
17618;SDS011;8928;51.678;6.074;2023-05-16T16:28:22;5.00;;;1.33;;
17618;SDS011;8928;51.678;6.074;2023-05-16T16:31:09;9.57;;;1.43;;
17618;SDS011;8928;51.678;6.074;2023-05-16T16:33:58;6.07;;;1.40;;
17618;SDS011;8928;51.678;6.074;2023-05-16T16:36:45;10.57;;;1.53;;
17618;SDS011;8928;51.678;6.074;2023-05-16T16:39:32;7.23;;;1.40;;
17618;SDS011;8928;51.678;6.074;2023-05-16T16:42:19;6.73;;;1.10;;
17618;SDS011;8928;51.678;6.074;2023-05-16T16:45:09;7.03;;;1.67;;
17618;SDS011;8928;51.678;6.074;2023-05-16T16:47:56;7.57;;;1.20;;
17618;SDS011;8928;51.678;6.074;2023-05-16T16:50:45;6.83;;;1.63;;
17618;SDS011;8928;51.678;6.074;2023-05-16T16:53:32;12.83;;;1.33;;
17618;SDS011;8928;51.678;6.074;2023-05-16T16:56:19;8.50;;;1.40;;
17618;SDS011;8928;51.678;6.074;2023-05-16T16:59:07;8.90;;;1.40;;
17618;SDS011;8928;51.678;6.074;2023-05-16T17:01:54;5.87;;;1.07;;
17618;SDS011;8928;51.678;6.074;2023-05-16T17:04:41;6.33;;;1.23;;